South Grafton, Massachusetts
Current Conditions -  °F | °C
As of 5:54 PM on Monday 24 Nov 2014 (Local Time) from KORH Reporting Station
Overcast Overcast  
Wind Chill: 59°   Ceiling: 1300
Heat Index: 59°   Visibility: 10mi
Dew Point: 56°   Wind: 22mph
Humidity: 90%   Direction: 220°SW
Pressure: 29.63"   Gusts: 35mph
Location:  42.18°N, 71.75°W
Report Text: KORH 242254Z 22019G30KT 10SM OVC013 15/13 A2963 RMK AO2 PK WND 22030/2237 SLP034 T01500133 $
Loading
Personal Weather Stations






























Interactive Weather Map New forecast layout! Learn more

10-Day Weather Forecast

Advertisements
Track Severe Weather on mobile